createdAt,value
2023-05-24T00:00:00.359Z,99935.88
2023-05-24T00:02:27.159Z,99938.53
2023-05-24T00:04:54.378Z,99937.56
2023-05-24T00:07:21.011Z,99948.59
2023-05-24T00:09:47.750Z,99943.44
2023-05-24T00:12:14.233Z,99947.16
2023-05-24T00:14:41.215Z,99944.28
2023-05-24T00:17:07.770Z,99942.59
2023-05-24T00:19:38.226Z,99949.84
2023-05-24T00:22:04.937Z,99951.34
2023-05-24T00:24:31.474Z,99945.25
2023-05-24T00:26:58.255Z,99947.81
2023-05-24T00:29:24.714Z,99950.69
2023-05-24T00:31:51.636Z,99952.63
2023-05-24T00:34:18.044Z,99958.72
2023-05-24T00:36:44.946Z,99955.81
2023-05-24T00:39:11.601Z,99958.16
2023-05-24T00:41:38.561Z,99964.34
2023-05-24T00:44:04.998Z,99965.19
2023-05-24T00:46:34.383Z,99967.09
2023-05-24T00:49:01.823Z,99959.59
2023-05-24T00:51:28.632Z,99965.56
2023-05-24T00:53:56.301Z,99961.38
2023-05-24T00:56:23.289Z,99952.81
2023-05-24T00:58:54.433Z,99955.75
2023-05-24T01:01:20.917Z,99955.00
2023-05-24T01:03:48.405Z,99955.84
2023-05-24T01:06:16.334Z,99957.13
2023-05-24T01:08:54.300Z,99957.03
2023-05-24T01:11:50.129Z,99953.88
2023-05-24T01:14:21.486Z,99955.78
2023-05-24T01:16:48.268Z,99950.00
2023-05-24T01:19:43.694Z,99946.31
2023-05-24T01:22:41.100Z,99948.03
2023-05-24T01:25:19.500Z,99954.16
2023-05-24T01:27:48.038Z,99949.22
2023-05-24T01:30:15.523Z,99951.22
2023-05-24T01:32:42.245Z,99955.69
2023-05-24T01:35:09.286Z,99956.06
2023-05-24T01:37:36.015Z,99954.25
2023-05-24T01:40:04.342Z,99958.25
2023-05-24T01:42:41.299Z,99965.59
2023-05-24T01:45:27.744Z,99962.53
2023-05-24T01:48:26.746Z,99958.38
2023-05-24T01:50:57.759Z,99964.81
2023-05-24T01:53:32.176Z,99956.38
2023-05-24T01:56:01.681Z,99961.22
2023-05-24T01:58:30.315Z,99954.72
2023-05-24T02:00:58.106Z,99957.38
2023-05-24T02:03:24.655Z,99954.72
2023-05-24T02:05:51.286Z,99958.63
2023-05-24T02:08:17.723Z,99954.34
2023-05-24T02:10:44.427Z,99959.94
2023-05-24T02:13:11.450Z,99960.88
2023-05-24T02:15:37.898Z,99955.06
2023-05-24T02:18:08.250Z,99952.97
2023-05-24T02:20:38.003Z,99957.34
2023-05-24T02:23:04.883Z,99962.16
2023-05-24T02:25:32.728Z,99961.59
2023-05-24T02:28:00.052Z,99960.34
2023-05-24T02:30:26.888Z,99953.69
2023-05-24T02:32:53.445Z,99954.91
2023-05-24T02:35:20.957Z,99959.22
2023-05-24T02:37:47.782Z,99951.50
2023-05-24T02:40:14.314Z,99949.78
2023-05-24T02:42:41.338Z,99951.97
2023-05-24T02:45:08.219Z,99951.25
2023-05-24T02:47:34.942Z,99950.34
2023-05-24T02:50:01.397Z,99947.34
2023-05-24T02:52:27.871Z,99945.44
2023-05-24T02:54:54.301Z,99945.78
2023-05-24T02:57:21.223Z,99952.81
2023-05-24T02:59:47.665Z,99951.09
2023-05-24T03:02:14.785Z,99955.66
2023-05-24T03:04:41.208Z,99948.81
2023-05-24T03:07:07.751Z,99943.84
2023-05-24T03:09:34.551Z,99940.94
2023-05-24T03:12:01.700Z,99939.31
2023-05-24T03:14:28.195Z,99930.75
2023-05-24T03:16:54.664Z,99933.47
2023-05-24T03:19:21.216Z,99936.22
2023-05-24T03:21:48.069Z,99937.59
2023-05-24T03:24:14.760Z,99940.09
2023-05-24T03:26:41.363Z,99946.69
2023-05-24T03:29:07.900Z,99937.16
2023-05-24T03:31:34.878Z,99943.28
2023-05-24T03:34:01.342Z,99957.16
2023-05-24T03:36:29.095Z,99957.31
2023-05-24T03:38:58.083Z,99958.75
2023-05-24T03:41:25.049Z,99954.72
2023-05-24T03:43:52.536Z,99954.72
2023-05-24T03:46:19.131Z,99950.34
2023-05-24T03:48:45.781Z,99957.19
2023-05-24T03:51:12.754Z,99958.84
2023-05-24T03:53:39.350Z,99959.53
2023-05-24T03:56:06.358Z,99962.34
2023-05-24T03:58:33.283Z,99952.31
2023-05-24T04:01:00.149Z,99957.16
2023-05-24T04:03:27.416Z,99952.94
2023-05-24T04:05:54.120Z,99958.00
2023-05-24T04:08:20.696Z,99956.25
2023-05-24T04:10:47.150Z,99970.81
2023-05-24T04:13:14.150Z,99977.19
2023-05-24T04:15:40.768Z,99983.00
2023-05-24T04:18:07.956Z,99979.22
2023-05-24T04:20:34.495Z,99979.06
2023-05-24T04:23:01.091Z,99972.91
2023-05-24T04:25:29.576Z,99975.72
2023-05-24T04:27:57.412Z,99972.53
2023-05-24T04:30:23.901Z,99969.25
2023-05-24T04:32:51.237Z,99977.19
2023-05-24T04:35:18.223Z,99978.06
2023-05-24T04:37:48.260Z,99973.38
2023-05-24T04:40:14.959Z,99963.78
2023-05-24T04:42:41.423Z,99971.09
2023-05-24T04:45:08.751Z,99970.38
2023-05-24T04:47:35.822Z,99969.28
2023-05-24T04:50:02.308Z,99957.97
2023-05-24T04:52:30.441Z,99933.44
2023-05-24T04:54:58.005Z,99923.44
2023-05-24T04:57:24.443Z,99919.63
2023-05-24T04:59:50.955Z,99923.22
2023-05-24T05:02:17.468Z,99914.97
2023-05-24T05:04:43.939Z,99918.75
2023-05-24T05:07:10.386Z,99925.47
2023-05-24T05:09:36.928Z,99923.41
2023-05-24T05:12:03.454Z,99925.44
2023-05-24T05:14:30.430Z,99938.00
2023-05-24T05:16:57.921Z,99942.84
2023-05-24T05:19:24.396Z,99952.69
2023-05-24T05:21:52.054Z,99955.13
2023-05-24T05:24:19.078Z,99960.66
2023-05-24T05:26:45.652Z,99968.44
2023-05-24T05:29:12.263Z,99977.09
2023-05-24T05:31:39.628Z,99974.25
2023-05-24T05:34:09.667Z,99982.38
2023-05-24T05:36:41.071Z,99990.09
2023-05-24T05:39:11.375Z,99994.19
2023-05-24T05:41:45.974Z,99990.91
2023-05-24T05:44:13.697Z,99988.00
2023-05-24T05:46:41.481Z,99982.34
2023-05-24T05:49:07.986Z,99988.22
2023-05-24T05:51:34.426Z,99982.59
2023-05-24T05:54:01.472Z,99985.19
2023-05-24T05:56:28.611Z,99984.22
2023-05-24T05:58:55.052Z,99986.53
2023-05-24T06:01:21.563Z,99979.97
2023-05-24T06:03:48.599Z,99989.97
2023-05-24T06:06:15.724Z,99985.97
2023-05-24T06:08:42.328Z,99988.19
2023-05-24T06:11:08.820Z,99983.06
2023-05-24T06:13:35.396Z,99974.06
2023-05-24T06:16:01.881Z,99972.81
2023-05-24T06:18:30.489Z,99960.16
2023-05-24T06:20:57.161Z,99961.16
2023-05-24T06:23:23.620Z,99944.09
2023-05-24T06:25:50.677Z,99938.47
2023-05-24T06:28:17.266Z,99936.25
2023-05-24T06:30:44.085Z,99927.91
2023-05-24T06:33:11.070Z,99932.22
2023-05-24T06:35:37.623Z,99935.47
2023-05-24T06:38:04.467Z,99942.72
2023-05-24T06:40:30.941Z,99946.28
2023-05-24T06:42:58.700Z,99952.00
2023-05-24T06:45:25.216Z,99964.56
2023-05-24T06:47:51.785Z,99966.28
2023-05-24T06:50:18.951Z,99978.81
2023-05-24T06:52:45.597Z,99976.75
2023-05-24T06:55:12.044Z,99983.06
2023-05-24T06:57:38.870Z,99970.75
2023-05-24T07:00:12.540Z,99978.69
2023-05-24T07:02:39.746Z,99981.59
2023-05-24T07:05:11.983Z,99974.53
2023-05-24T07:07:43.368Z,99981.34
2023-05-24T07:10:12.084Z,99981.06
2023-05-24T07:12:38.919Z,99978.72
2023-05-24T07:15:07.100Z,99983.19
2023-05-24T07:17:33.651Z,99990.13
2023-05-24T07:20:01.757Z,99990.13
2023-05-24T07:22:30.023Z,99985.47
2023-05-24T07:24:56.594Z,99984.06
2023-05-24T07:27:23.387Z,99987.00
2023-05-24T07:29:50.334Z,99982.41
2023-05-24T07:32:16.997Z,99994.38
2023-05-24T07:34:43.941Z,99997.56
2023-05-24T07:37:10.421Z,99997.91
2023-05-24T07:39:38.348Z,99994.28
2023-05-24T07:42:05.592Z,99995.34
2023-05-24T07:44:32.319Z,99990.81
2023-05-24T07:46:59.205Z,100005.31
2023-05-24T07:49:26.196Z,99984.75
2023-05-24T07:51:53.449Z,99979.59
2023-05-24T07:54:20.050Z,99980.59
2023-05-24T07:56:47.622Z,99976.94
2023-05-24T07:59:14.073Z,99986.75
2023-05-24T08:01:41.760Z,99974.59
2023-05-24T08:04:10.379Z,99974.03
2023-05-24T08:06:36.991Z,99981.03
2023-05-24T08:09:05.144Z,99979.50
2023-05-24T08:11:31.562Z,99974.31
2023-05-24T08:13:58.144Z,99983.63
2023-05-24T08:16:24.816Z,99982.72
2023-05-24T08:18:53.368Z,99985.88
2023-05-24T08:21:21.903Z,99989.16
2023-05-24T08:23:48.419Z,99998.66
2023-05-24T08:26:16.643Z,99995.09
2023-05-24T08:28:43.074Z,99989.63
2023-05-24T08:31:09.964Z,99985.50
2023-05-24T08:33:38.285Z,99980.41
2023-05-24T08:36:04.851Z,99977.97
2023-05-24T08:38:31.268Z,99977.13
2023-05-24T08:41:00.408Z,99979.09
2023-05-24T08:43:29.148Z,99971.53
2023-05-24T08:45:59.075Z,99977.81
2023-05-24T08:48:26.946Z,99978.84
2023-05-24T08:50:53.646Z,99985.84
2023-05-24T08:53:22.645Z,99967.97
2023-05-24T08:55:53.530Z,99962.81
2023-05-24T08:58:20.717Z,99962.81
2023-05-24T09:00:47.534Z,99963.53
2023-05-24T09:03:14.186Z,99958.88
2023-05-24T09:05:41.931Z,99957.44
2023-05-24T09:08:10.433Z,99951.06
2023-05-24T09:10:49.421Z,99955.19
2023-05-24T09:13:23.948Z,99959.03
2023-05-24T09:15:50.773Z,99955.75
2023-05-24T09:18:17.318Z,99943.03
2023-05-24T09:20:44.059Z,99943.44
2023-05-24T09:23:12.552Z,99954.59
2023-05-24T09:25:44.728Z,99941.81
2023-05-24T09:28:14.679Z,99950.22
2023-05-24T09:30:46.145Z,99946.22
2023-05-24T09:33:13.405Z,99948.63
2023-05-24T09:35:44.840Z,99958.84
2023-05-24T09:38:18.795Z,99953.78
2023-05-24T09:40:45.889Z,99953.50
2023-05-24T09:43:12.533Z,99947.53
2023-05-24T09:45:49.528Z,99941.31
2023-05-24T09:48:20.146Z,99951.94
2023-05-24T09:51:04.676Z,99942.72
2023-05-24T09:53:33.942Z,99942.16
2023-05-24T09:56:01.813Z,99939.31
2023-05-24T09:58:33.980Z,99934.22
2023-05-24T10:01:08.329Z,99933.63
2023-05-24T10:03:36.235Z,99928.75
2023-05-24T10:06:11.302Z,99924.25
2023-05-24T10:08:38.134Z,99926.63
2023-05-24T10:11:05.643Z,99920.13
2023-05-24T10:13:35.731Z,99925.19
2023-05-24T10:16:05.857Z,99924.72
2023-05-24T10:18:32.779Z,99924.97
2023-05-24T10:21:02.127Z,99928.09
2023-05-24T10:23:31.412Z,99933.28
2023-05-24T10:26:10.279Z,99932.28
2023-05-24T10:28:55.830Z,99929.84
2023-05-24T10:31:27.753Z,99929.44
2023-05-24T10:34:06.519Z,99930.00
2023-05-24T10:36:35.433Z,99932.31
2023-05-24T10:39:02.181Z,99921.88
2023-05-24T10:41:29.045Z,99911.03
2023-05-24T10:44:09.275Z,99911.97
2023-05-24T10:46:38.147Z,99913.50
2023-05-24T10:49:06.913Z,99912.66
2023-05-24T10:51:41.128Z,99921.09
2023-05-24T10:54:16.698Z,99916.09
2023-05-24T10:56:49.287Z,99930.25
2023-05-24T10:59:23.106Z,99926.94
2023-05-24T11:02:00.687Z,99927.16
2023-05-24T11:04:31.830Z,99922.81
2023-05-24T11:07:03.928Z,99924.59
2023-05-24T11:09:31.811Z,99924.19
2023-05-24T11:12:07.985Z,99917.66
2023-05-24T11:14:39.349Z,99913.88
2023-05-24T11:17:07.990Z,99915.91
2023-05-24T11:19:39.037Z,99912.88
2023-05-24T11:22:09.506Z,99907.22
2023-05-24T11:24:36.874Z,99909.38
2023-05-24T11:27:03.961Z,99896.84
2023-05-24T11:29:30.597Z,99896.81
2023-05-24T11:32:08.017Z,99886.25
2023-05-24T11:34:35.320Z,99892.06
2023-05-24T11:37:03.140Z,99886.13
2023-05-24T11:39:34.845Z,99887.72
2023-05-24T11:42:04.963Z,99877.56
2023-05-24T11:44:32.674Z,99880.81
2023-05-24T11:47:03.339Z,99890.47
2023-05-24T11:49:29.845Z,99889.78
2023-05-24T11:51:57.846Z,99884.28
2023-05-24T11:54:25.835Z,99889.84
2023-05-24T11:56:53.373Z,99898.00
2023-05-24T11:59:27.405Z,99895.88
2023-05-24T12:02:05.520Z,99902.59
2023-05-24T12:04:33.512Z,99898.94
2023-05-24T12:07:01.366Z,99899.47
2023-05-24T12:09:28.526Z,99897.06
2023-05-24T12:11:55.801Z,99905.56
2023-05-24T12:14:30.620Z,99897.84
2023-05-24T12:16:58.010Z,99905.03
2023-05-24T12:19:32.994Z,99906.06
2023-05-24T12:22:01.995Z,99900.09
2023-05-24T12:24:31.329Z,99906.22
2023-05-24T12:27:02.249Z,99905.50
2023-05-24T12:29:40.502Z,99908.22
2023-05-24T12:32:12.641Z,99902.69
2023-05-24T12:34:44.703Z,99904.50
2023-05-24T12:37:12.462Z,99902.72
2023-05-24T12:39:42.195Z,99903.69
2023-05-24T12:42:10.474Z,99907.50
2023-05-24T12:44:38.613Z,99907.50
2023-05-24T12:47:07.714Z,99899.53
2023-05-24T12:49:34.581Z,99910.94
2023-05-24T12:52:04.139Z,99905.50
2023-05-24T12:54:31.141Z,99907.84
2023-05-24T12:57:00.048Z,99905.84
2023-05-24T12:59:29.062Z,99911.38
2023-05-24T13:01:56.211Z,99905.34
2023-05-24T13:04:26.104Z,99914.91
2023-05-24T13:06:52.735Z,99908.44
2023-05-24T13:09:21.817Z,99908.19
2023-05-24T13:11:48.770Z,99905.03
2023-05-24T13:14:17.153Z,99895.56
2023-05-24T13:16:44.171Z,99902.97
2023-05-24T13:19:11.703Z,99914.41
2023-05-24T13:21:39.058Z,99910.75
2023-05-24T13:24:06.532Z,99910.50
2023-05-24T13:26:37.150Z,99900.56
2023-05-24T13:31:36.296Z,99898.56
2023-05-24T13:34:02.890Z,99892.53
2023-05-24T13:36:29.412Z,99892.09
2023-05-24T13:39:12.782Z,99889.41
2023-05-24T13:41:42.402Z,99888.13
2023-05-24T13:44:10.152Z,99879.31
2023-05-24T13:46:37.322Z,99876.78
2023-05-24T13:49:04.637Z,99875.94
2023-05-24T13:51:31.302Z,99875.88
2023-05-24T13:53:57.967Z,99881.34
2023-05-24T13:56:24.902Z,99883.13
2023-05-24T13:58:52.817Z,99877.34
2023-05-24T14:01:19.468Z,99875.91
2023-05-24T14:03:46.218Z,99876.41
2023-05-24T14:06:12.900Z,99866.84
2023-05-24T14:08:39.860Z,99875.06
2023-05-24T14:11:06.516Z,99891.84
2023-05-24T14:14:32.928Z,99881.56
2023-05-24T14:16:20.195Z,99889.34
2023-05-24T14:18:48.940Z,99885.50
2023-05-24T14:21:15.647Z,99890.81
2023-05-24T14:23:42.678Z,99883.34
2023-05-24T14:26:09.320Z,99876.34
2023-05-24T14:28:35.741Z,99880.19
2023-05-24T14:31:02.474Z,99888.06
2023-05-24T14:33:29.314Z,99890.13
2023-05-24T14:35:55.777Z,99884.97
2023-05-24T14:38:23.872Z,99882.38
2023-05-24T14:40:51.544Z,99877.19
2023-05-24T14:43:18.126Z,99880.19
2023-05-24T14:45:44.974Z,99872.72
2023-05-24T14:48:12.540Z,99877.50
2023-05-24T14:50:40.637Z,99879.06
2023-05-24T14:53:12.154Z,99860.47
2023-05-24T14:55:41.285Z,99855.72
2023-05-24T14:58:12.436Z,99871.47
2023-05-24T15:00:40.320Z,99871.75
2023-05-24T15:03:08.411Z,99864.28
2023-05-24T15:05:36.671Z,99866.00
2023-05-24T15:08:05.368Z,99862.44
2023-05-24T15:10:31.923Z,99864.53
2023-05-24T15:12:58.370Z,99861.00
2023-05-24T15:15:25.482Z,99863.13
2023-05-24T15:17:52.280Z,99861.72
2023-05-24T15:20:19.740Z,99852.88
2023-05-24T15:22:46.553Z,99862.09
2023-05-24T15:25:13.109Z,99868.00
2023-05-24T15:27:39.560Z,99857.44
2023-05-24T15:30:07.647Z,99860.13
2023-05-24T15:32:34.299Z,99865.38
2023-05-24T15:35:01.165Z,99850.94
2023-05-24T15:37:27.824Z,99857.03
2023-05-24T15:39:54.494Z,99857.66
2023-05-24T15:42:22.074Z,99859.72
2023-05-24T15:44:48.537Z,99863.91
2023-05-24T15:47:15.037Z,99864.91
2023-05-24T15:49:41.983Z,99870.03
2023-05-24T15:52:08.725Z,99865.31
2023-05-24T15:54:35.549Z,99870.34
2023-05-24T15:57:02.577Z,99871.47
2023-05-24T15:59:29.432Z,99865.19
2023-05-24T16:01:56.494Z,99858.13
2023-05-24T16:04:23.402Z,99868.47
2023-05-24T16:06:49.923Z,99870.78
2023-05-24T16:09:16.457Z,99858.28
2023-05-24T16:11:43.285Z,99870.63
2023-05-24T16:14:10.313Z,99861.50
2023-05-24T16:16:37.905Z,99864.75
2023-05-24T16:19:04.524Z,99863.88
2023-05-24T16:21:33.114Z,99857.69
2023-05-24T16:24:01.903Z,99860.38
2023-05-24T16:26:30.897Z,99859.03
2023-05-24T16:28:57.825Z,99861.69
2023-05-24T16:31:24.703Z,99862.13
2023-05-24T16:33:51.252Z,99872.28
2023-05-24T16:36:17.703Z,99874.25
2023-05-24T16:38:45.388Z,99868.81
2023-05-24T16:41:12.070Z,99869.16
2023-05-24T16:43:38.506Z,99867.75
2023-05-24T16:46:05.778Z,99868.06
2023-05-24T16:48:32.651Z,99871.75
2023-05-24T16:51:00.164Z,99864.94
2023-05-24T16:53:27.624Z,99872.47
2023-05-24T16:55:56.104Z,99869.25
2023-05-24T16:58:30.028Z,99877.50
2023-05-24T17:00:56.758Z,99870.69
2023-05-24T17:03:28.617Z,99870.44
2023-05-24T17:05:58.049Z,99869.31
2023-05-24T17:08:27.479Z,99882.34
2023-05-24T17:10:58.596Z,99878.78
2023-05-24T17:13:27.845Z,99876.09
2023-05-24T17:15:55.285Z,99881.63
2023-05-24T17:18:29.637Z,99886.72
2023-05-24T17:21:05.763Z,99878.41
2023-05-24T17:23:34.164Z,99876.69
2023-05-24T17:26:02.490Z,99870.00
2023-05-24T17:28:30.002Z,99867.47
2023-05-24T17:30:57.974Z,99862.81
2023-05-24T17:33:27.074Z,99863.94
2023-05-24T17:35:57.179Z,99871.00
2023-05-24T17:38:24.892Z,99872.44
2023-05-24T17:40:57.237Z,99871.00
2023-05-24T17:43:34.672Z,99874.41
2023-05-24T17:46:04.125Z,99870.16
2023-05-24T17:48:31.868Z,99866.22
2023-05-24T17:51:02.092Z,99873.03
2023-05-24T17:53:31.796Z,99872.72
2023-05-24T17:55:59.446Z,99872.84
2023-05-24T17:58:26.056Z,99870.00
2023-05-24T18:00:52.740Z,99870.16
2023-05-24T18:03:19.734Z,99865.31
2023-05-24T18:05:46.296Z,99870.84
2023-05-24T18:08:12.867Z,99874.94
2023-05-24T18:10:39.296Z,99870.84
2023-05-24T18:13:07.682Z,99880.22
2023-05-24T18:15:34.568Z,99877.81
2023-05-24T18:18:01.197Z,99873.44
2023-05-24T18:20:28.221Z,99877.25
2023-05-24T18:22:54.707Z,99880.50
2023-05-24T18:25:21.458Z,99883.19
2023-05-24T18:27:47.888Z,99878.97
2023-05-24T18:30:14.841Z,99882.94
2023-05-24T18:32:49.006Z,99890.88
2023-05-24T18:35:28.105Z,99899.66
2023-05-24T18:37:55.046Z,99905.31
2023-05-24T18:40:23.333Z,99915.50
2023-05-24T18:42:53.134Z,99914.94
2023-05-24T18:45:19.587Z,99910.09
2023-05-24T18:47:46.258Z,99905.72
2023-05-24T18:50:12.951Z,99908.38
2023-05-24T18:52:39.362Z,99914.31
2023-05-24T18:55:10.482Z,99920.66
2023-05-24T18:57:37.647Z,99917.97
2023-05-24T19:00:06.320Z,99923.00
2023-05-24T19:02:38.638Z,99924.94
2023-05-24T19:05:06.722Z,99932.72
2023-05-24T19:07:34.815Z,99936.25
2023-05-24T19:10:01.613Z,99939.44
2023-05-24T19:12:28.756Z,99943.66
2023-05-24T19:14:55.361Z,99938.38
2023-05-24T19:17:22.339Z,99947.22
2023-05-24T19:19:49.088Z,99956.81
2023-05-24T19:22:16.452Z,99954.56
2023-05-24T19:24:43.370Z,99960.97
2023-05-24T19:27:09.973Z,99964.13
2023-05-24T19:29:37.766Z,99959.88
2023-05-24T19:32:05.019Z,99964.06
2023-05-24T19:34:33.292Z,99965.72
2023-05-24T19:36:59.879Z,99966.34
2023-05-24T19:39:26.651Z,99966.84
2023-05-24T19:41:53.128Z,99983.78
2023-05-24T19:44:19.586Z,99982.34
2023-05-24T19:46:46.176Z,99982.94
2023-05-24T19:49:12.679Z,99995.47
2023-05-24T19:51:39.314Z,99995.25
2023-05-24T19:54:09.098Z,99993.53
2023-05-24T19:56:36.145Z,99998.78
2023-05-24T19:59:02.655Z,99993.78
2023-05-24T20:01:29.855Z,99994.75
2023-05-24T20:03:56.435Z,100007.00
2023-05-24T20:06:22.933Z,100008.81
2023-05-24T20:08:49.883Z,100018.53
2023-05-24T20:11:16.305Z,100021.22
2023-05-24T20:13:43.160Z,100028.53
2023-05-24T20:16:09.864Z,100029.25
2023-05-24T20:18:36.872Z,100036.31
2023-05-24T20:21:03.883Z,100028.84
2023-05-24T20:23:30.846Z,100042.22
2023-05-24T20:25:57.810Z,100044.28
2023-05-24T20:28:30.619Z,100044.94
2023-05-24T20:30:58.611Z,100043.50
2023-05-24T20:33:25.319Z,100040.41
2023-05-24T20:35:53.855Z,100038.22
2023-05-24T20:38:20.724Z,100050.66
2023-05-24T20:40:47.687Z,100039.22
2023-05-24T20:43:14.145Z,100046.84
2023-05-24T20:45:40.726Z,100048.41
2023-05-24T20:48:07.522Z,100042.03
2023-05-24T20:50:33.979Z,100045.59
2023-05-24T20:53:00.456Z,100051.91
2023-05-24T20:55:27.203Z,100045.06
2023-05-24T20:57:53.852Z,100049.16
2023-05-24T21:00:20.376Z,100054.38
2023-05-24T21:02:47.009Z,100050.25
2023-05-24T21:05:13.652Z,100047.03
2023-05-24T21:07:40.315Z,100054.28
2023-05-24T21:10:07.757Z,100056.00
2023-05-24T21:12:34.261Z,100058.56
2023-05-24T21:15:00.748Z,100061.91
2023-05-24T21:17:27.785Z,100066.91
2023-05-24T21:19:54.315Z,100066.28
2023-05-24T21:22:21.241Z,100072.47
2023-05-24T21:24:47.786Z,100070.84
2023-05-24T21:27:14.561Z,100080.63
2023-05-24T21:29:42.067Z,100082.84
2023-05-24T21:32:09.036Z,100081.97
2023-05-24T21:34:38.675Z,100082.72
2023-05-24T21:37:05.352Z,100080.91
2023-05-24T21:39:32.897Z,100083.38
2023-05-24T21:41:59.413Z,100080.50
2023-05-24T21:44:25.982Z,100080.41
2023-05-24T21:46:52.917Z,100092.03
2023-05-24T21:49:20.068Z,100088.41
2023-05-24T21:51:46.915Z,100090.13
2023-05-24T21:54:13.808Z,100093.75
2023-05-24T21:56:40.316Z,100095.88
2023-05-24T21:59:07.155Z,100094.88
2023-05-24T22:01:33.638Z,100088.34
2023-05-24T22:04:00.481Z,100092.13
2023-05-24T22:06:27.204Z,100094.91
2023-05-24T22:08:53.804Z,100093.22
2023-05-24T22:11:20.659Z,100098.66
2023-05-24T22:13:47.109Z,100098.53
2023-05-24T22:16:13.648Z,100092.38
2023-05-24T22:18:40.294Z,100091.81
2023-05-24T22:21:06.786Z,100094.41
2023-05-24T22:23:33.859Z,100099.56
2023-05-24T22:26:00.307Z,100100.06
2023-05-24T22:28:26.748Z,100097.03
2023-05-24T22:30:53.716Z,100092.84
2023-05-24T22:33:20.187Z,100094.53
2023-05-24T22:35:46.777Z,100097.78
2023-05-24T22:38:13.441Z,100100.16
2023-05-24T22:40:42.064Z,100089.97
2023-05-24T22:43:08.669Z,100092.72
2023-05-24T22:45:35.350Z,100092.53
2023-05-24T22:48:03.460Z,100091.69
2023-05-24T22:50:30.518Z,100086.53
2023-05-24T22:52:58.878Z,100099.47
2023-05-24T22:55:25.425Z,100096.03
2023-05-24T22:57:52.354Z,100107.56
2023-05-24T23:00:18.986Z,100103.66
2023-05-24T23:02:46.794Z,100106.09
2023-05-24T23:05:14.252Z,100102.16
2023-05-24T23:07:40.778Z,100110.06
2023-05-24T23:10:09.540Z,100112.63
2023-05-24T23:12:36.324Z,100105.84
2023-05-24T23:15:03.400Z,100105.00
2023-05-24T23:17:30.001Z,100097.78
2023-05-24T23:19:56.590Z,100106.69
2023-05-24T23:22:24.044Z,100102.72
2023-05-24T23:24:51.089Z,100104.44
2023-05-24T23:27:18.200Z,100110.53
2023-05-24T23:29:44.682Z,100113.19
2023-05-24T23:32:11.692Z,100115.00
2023-05-24T23:34:38.189Z,100116.03
2023-05-24T23:37:05.590Z,100113.56
2023-05-24T23:39:32.157Z,100120.63
2023-05-24T23:41:58.679Z,100122.31
2023-05-24T23:44:26.038Z,100120.00
2023-05-24T23:46:53.209Z,100114.31
2023-05-24T23:49:20.455Z,100117.06
2023-05-24T23:51:47.297Z,100118.84
2023-05-24T23:54:18.955Z,100115.25
2023-05-24T23:56:45.798Z,100112.50
2023-05-24T23:59:12.784Z,100118.84
